createdAt,value
2019-04-16T00:02:08.003Z,6.26
2019-04-16T00:04:57.522Z,6.15
2019-04-16T00:07:50.421Z,6.08
2019-04-16T00:10:26.283Z,6.19
2019-04-16T00:13:05.085Z,6.11
2019-04-16T00:15:34.493Z,6.05
2019-04-16T00:18:04.063Z,5.88
2019-04-16T00:20:37.952Z,5.95
2019-04-16T00:23:14.388Z,5.94
2019-04-16T00:25:45.516Z,5.83
2019-04-16T00:28:18.873Z,5.99
2019-04-16T00:30:48.843Z,6.00
2019-04-16T00:33:20.761Z,5.97
2019-04-16T00:35:51.381Z,5.85
2019-04-16T00:38:22.631Z,5.83
2019-04-16T00:40:53.484Z,5.75
2019-04-16T00:43:24.150Z,5.78
2019-04-16T00:45:54.663Z,5.86
2019-04-16T00:48:24.141Z,5.77
2019-04-16T00:50:54.620Z,5.80
2019-04-16T00:53:26.548Z,5.76
2019-04-16T00:55:56.466Z,5.75
2019-04-16T00:58:28.146Z,5.64
2019-04-16T01:00:58.546Z,5.60
2019-04-16T01:03:29.368Z,5.61
2019-04-16T01:05:59.367Z,5.58
2019-04-16T01:08:30.403Z,5.57
2019-04-16T01:11:01.876Z,5.65
2019-04-16T01:13:31.336Z,5.65
2019-04-16T01:16:03.481Z,5.63
2019-04-16T01:18:38.478Z,5.55
2019-04-16T01:21:05.731Z,5.46
2019-04-16T01:23:35.146Z,5.43
2019-04-16T01:26:04.965Z,5.30
2019-04-16T01:28:36.582Z,5.39
2019-04-16T01:31:36.266Z,5.40
2019-04-16T01:34:36.115Z,5.31
2019-04-16T01:37:34.488Z,5.31
2019-04-16T01:40:05.198Z,5.26
2019-04-16T01:42:36.150Z,5.28
2019-04-16T01:45:06.518Z,5.31
2019-04-16T01:47:37.265Z,5.32
2019-04-16T01:50:12.941Z,5.25
2019-04-16T01:52:40.665Z,5.15
2019-04-16T01:55:10.341Z,5.27
2019-04-16T01:57:40.986Z,5.13
2019-04-16T02:00:11.013Z,5.15
2019-04-16T02:02:43.512Z,5.15
2019-04-16T02:05:13.666Z,5.16
2019-04-16T02:07:44.856Z,5.16
2019-04-16T02:10:16.009Z,5.14
2019-04-16T02:12:46.914Z,5.15
2019-04-16T02:15:21.626Z,5.19
2019-04-16T02:17:51.589Z,5.15
2019-04-16T02:20:21.012Z,5.09
2019-04-16T02:22:53.574Z,5.04
2019-04-16T02:25:24.428Z,4.87
2019-04-16T02:27:54.264Z,4.95
2019-04-16T02:30:25.277Z,4.98
2019-04-16T02:32:56.297Z,4.96
2019-04-16T02:35:25.903Z,4.81
2019-04-16T02:37:56.911Z,4.83
2019-04-16T02:40:27.490Z,4.84
2019-04-16T02:43:04.233Z,4.76
2019-04-16T02:45:28.380Z,4.74
2019-04-16T02:47:59.207Z,4.75
2019-04-16T02:50:38.582Z,4.74
2019-04-16T02:53:28.601Z,4.82
2019-04-16T02:56:19.126Z,4.70
2019-04-16T02:58:54.240Z,4.67
2019-04-16T03:01:32.398Z,4.60
2019-04-16T03:04:07.222Z,4.68
2019-04-16T03:06:36.883Z,4.66
2019-04-16T03:09:09.169Z,4.59
2019-04-16T03:11:39.168Z,4.53
2019-04-16T03:14:08.606Z,4.65
2019-04-16T03:16:59.992Z,4.65
2019-04-16T03:19:34.434Z,4.57
2019-04-16T03:22:03.856Z,4.63
2019-04-16T03:24:34.340Z,4.63
2019-04-16T03:27:06.611Z,4.56
2019-04-16T03:29:36.029Z,4.53
2019-04-16T03:32:13.978Z,4.53
2019-04-16T03:34:40.474Z,4.56
2019-04-16T03:37:13.013Z,4.56
2019-04-16T03:39:44.673Z,4.68
2019-04-16T03:42:28.204Z,4.71
2019-04-16T03:44:57.674Z,4.79
2019-04-16T03:47:27.175Z,4.57
2019-04-16T03:50:00.262Z,4.62
2019-04-16T03:52:29.714Z,4.56
2019-04-16T03:55:00.912Z,4.54
2019-04-16T03:57:33.262Z,4.52
2019-04-16T04:00:04.094Z,4.55
2019-04-16T04:02:33.490Z,4.61
2019-04-16T04:05:06.816Z,4.63
2019-04-16T04:07:36.925Z,4.59
2019-04-16T04:10:07.076Z,4.49
2019-04-16T04:12:37.901Z,4.38
2019-04-16T04:15:08.872Z,4.48
2019-04-16T04:17:39.553Z,4.37
2019-04-16T04:20:09.748Z,4.38
2019-04-16T04:22:39.215Z,4.35
2019-04-16T04:25:09.232Z,4.40
2019-04-16T04:27:38.736Z,4.37
2019-04-16T04:30:11.111Z,4.41
2019-04-16T04:32:40.472Z,4.56
2019-04-16T04:35:10.268Z,4.43
2019-04-16T04:37:39.683Z,4.52
2019-04-16T04:40:09.092Z,4.46
2019-04-16T04:42:38.453Z,4.41
2019-04-16T04:45:10.199Z,4.40
2019-04-16T04:47:39.955Z,4.46
2019-04-16T04:50:09.460Z,4.43
2019-04-16T04:52:38.774Z,4.48
2019-04-16T04:55:08.683Z,4.55
2019-04-16T04:57:38.195Z,4.65
2019-04-16T05:00:08.642Z,4.57
2019-04-16T05:02:38.932Z,4.57
2019-04-16T05:05:24.542Z,4.55
2019-04-16T05:07:54.074Z,4.51
2019-04-16T05:10:23.453Z,4.58
2019-04-16T05:12:53.792Z,4.61
2019-04-16T05:15:23.265Z,4.61
2019-04-16T05:17:54.799Z,4.72
2019-04-16T05:20:24.365Z,4.73
2019-04-16T05:22:54.545Z,4.76
2019-04-16T05:25:25.994Z,4.72
2019-04-16T05:27:56.728Z,4.80
2019-04-16T05:30:26.152Z,4.73
2019-04-16T05:32:55.585Z,4.76
2019-04-16T05:35:25.061Z,4.88
2019-04-16T05:37:55.560Z,4.90
2019-04-16T05:40:34.040Z,5.04
2019-04-16T05:42:59.667Z,5.10
2019-04-16T05:45:29.291Z,5.15
2019-04-16T05:47:58.709Z,5.11
2019-04-16T05:50:29.642Z,5.12
2019-04-16T05:52:59.482Z,5.28
2019-04-16T05:55:36.702Z,5.31
2019-04-16T05:58:06.216Z,5.38
2019-04-16T06:00:42.455Z,5.39
2019-04-16T06:03:12.957Z,5.47
2019-04-16T06:05:45.238Z,5.50
2019-04-16T06:08:14.699Z,5.53
2019-04-16T06:10:49.679Z,5.52
2019-04-16T06:13:33.106Z,5.51
2019-04-16T06:16:11.777Z,5.48
2019-04-16T06:19:15.684Z,5.61
2019-04-16T06:22:02.702Z,5.71
2019-04-16T06:24:43.124Z,5.73
2019-04-16T06:27:33.345Z,5.74
2019-04-16T06:30:36.140Z,5.85
2019-04-16T06:33:11.872Z,6.07
2019-04-16T06:36:10.170Z,6.11
2019-04-16T06:38:46.012Z,6.20
2019-04-16T06:41:41.677Z,6.31
2019-04-16T06:44:08.056Z,6.44
2019-04-16T06:47:10.567Z,6.35
2019-04-16T06:50:07.804Z,6.34
2019-04-16T06:52:56.231Z,6.38
2019-04-16T06:55:42.790Z,6.40
2019-04-16T06:58:49.892Z,6.47
2019-04-16T07:01:23.407Z,6.59
2019-04-16T07:04:09.597Z,6.73
2019-04-16T07:06:56.784Z,6.76
2019-04-16T07:09:41.689Z,6.87
2019-04-16T07:12:13.890Z,8.18
2019-04-16T07:14:45.587Z,10.75
2019-04-16T07:17:17.306Z,11.92
2019-04-16T07:19:45.964Z,13.48
2019-04-16T07:22:20.956Z,14.83
2019-04-16T07:24:49.800Z,14.30
2019-04-16T07:27:20.890Z,15.18
2019-04-16T07:29:56.338Z,15.78
2019-04-16T07:32:49.717Z,15.96
2019-04-16T07:35:46.425Z,16.36
2019-04-16T07:38:37.684Z,15.58
2019-04-16T07:41:32.243Z,15.94
2019-04-16T07:44:15.504Z,16.62
2019-04-16T07:47:13.285Z,17.20
2019-04-16T07:50:04.756Z,17.66
2019-04-16T07:52:52.230Z,16.70
2019-04-16T07:55:42.224Z,17.33
2019-04-16T07:58:11.680Z,17.18
2019-04-16T08:00:41.558Z,18.08
2019-04-16T08:03:11.023Z,18.16
2019-04-16T08:05:41.771Z,17.75
2019-04-16T08:08:11.436Z,18.17
2019-04-16T08:10:40.826Z,18.88
2019-04-16T08:13:19.044Z,19.43
2019-04-16T08:15:49.246Z,19.84
2019-04-16T08:18:18.810Z,18.87
2019-04-16T08:21:00.356Z,18.11
2019-04-16T08:23:44.530Z,17.88
2019-04-16T08:26:14.086Z,17.61
2019-04-16T08:28:43.472Z,18.66
2019-04-16T08:31:18.776Z,19.04
2019-04-16T08:33:48.179Z,18.15
2019-04-16T08:36:17.606Z,17.93
2019-04-16T08:38:47.134Z,19.17
2019-04-16T08:41:20.397Z,19.73
2019-04-16T08:43:47.650Z,19.03
2019-04-16T08:46:17.126Z,19.35
2019-04-16T08:48:49.236Z,19.43
2019-04-16T08:51:29.700Z,18.95
2019-04-16T08:53:48.951Z,19.56
2019-04-16T08:56:20.300Z,20.60
2019-04-16T08:58:49.742Z,20.94
2019-04-16T09:01:26.366Z,20.76
2019-04-16T09:04:01.194Z,20.60
2019-04-16T09:06:31.384Z,21.17
2019-04-16T09:09:13.545Z,20.24
2019-04-16T09:11:42.859Z,20.38
2019-04-16T09:14:16.865Z,22.11
2019-04-16T09:16:57.793Z,21.92
2019-04-16T09:19:27.217Z,21.08
2019-04-16T09:21:58.194Z,20.93
2019-04-16T09:24:40.455Z,21.22
2019-04-16T09:27:30.098Z,20.70
2019-04-16T09:30:23.832Z,21.75
2019-04-16T09:33:00.332Z,20.85
2019-04-16T09:35:32.277Z,20.75
2019-04-16T09:38:22.011Z,20.75
2019-04-16T09:41:16.765Z,19.85
2019-04-16T09:43:50.036Z,19.23
2019-04-16T09:46:25.013Z,18.21
2019-04-16T09:48:53.923Z,17.49
2019-04-16T09:51:26.229Z,17.12
2019-04-16T09:53:55.871Z,16.88
2019-04-16T09:56:29.993Z,16.81
2019-04-16T09:59:11.006Z,16.25
2019-04-16T10:01:50.104Z,15.91
2019-04-16T10:04:20.468Z,15.96
2019-04-16T10:06:49.849Z,16.17
2019-04-16T10:09:22.546Z,16.04
2019-04-16T10:11:52.390Z,16.24
2019-04-16T10:14:21.929Z,16.14
2019-04-16T10:16:52.581Z,16.08
2019-04-16T10:19:23.106Z,15.85
2019-04-16T10:21:54.660Z,16.06
2019-04-16T10:24:47.575Z,16.06
2019-04-16T10:27:32.332Z,16.27
2019-04-16T10:30:00.898Z,16.64
2019-04-16T10:32:32.103Z,16.57
2019-04-16T10:35:02.863Z,16.69
2019-04-16T10:37:32.568Z,16.31
2019-04-16T10:40:27.063Z,16.21
2019-04-16T10:43:15.727Z,15.99
2019-04-16T10:46:01.430Z,15.95
2019-04-16T10:48:42.931Z,16.25
2019-04-16T10:51:31.681Z,16.12
2019-04-16T10:54:22.625Z,16.02
2019-04-16T10:57:10.454Z,15.96
2019-04-16T11:00:05.260Z,15.62
2019-04-16T11:02:51.747Z,15.26
2019-04-16T11:05:40.091Z,15.26
2019-04-16T11:08:10.469Z,15.42
2019-04-16T11:10:41.868Z,15.40
2019-04-16T11:13:17.764Z,15.09
2019-04-16T11:15:47.377Z,15.39
2019-04-16T11:18:16.882Z,15.59
2019-04-16T11:20:46.499Z,15.34
2019-04-16T11:23:17.546Z,15.36
2019-04-16T11:25:48.221Z,15.50
2019-04-16T11:28:17.694Z,15.30
2019-04-16T11:30:51.344Z,15.35
2019-04-16T11:33:20.748Z,15.31
2019-04-16T11:35:53.051Z,15.40
2019-04-16T11:38:22.105Z,15.34
2019-04-16T11:40:51.496Z,15.39
2019-04-16T11:43:22.199Z,15.26
2019-04-16T11:45:53.516Z,15.37
2019-04-16T11:48:22.990Z,15.53
2019-04-16T11:50:52.665Z,15.30
2019-04-16T11:53:23.168Z,15.44
2019-04-16T11:55:54.484Z,15.27
2019-04-16T11:58:37.799Z,15.14
2019-04-16T12:01:38.499Z,14.94
2019-04-16T12:04:15.249Z,15.23
2019-04-16T12:07:06.268Z,15.26
2019-04-16T12:09:59.428Z,15.17
2019-04-16T12:12:50.648Z,15.12
2019-04-16T12:15:53.712Z,15.16
2019-04-16T12:18:54.579Z,15.42
2019-04-16T12:21:41.997Z,15.45
2019-04-16T12:24:29.254Z,15.23
2019-04-16T12:27:19.887Z,15.18
2019-04-16T12:30:08.002Z,15.19
2019-04-16T12:32:44.786Z,15.29
2019-04-16T12:35:37.960Z,15.14
2019-04-16T12:38:17.938Z,15.11
2019-04-16T12:41:12.765Z,15.30
2019-04-16T12:44:04.680Z,15.28
2019-04-16T12:46:51.831Z,15.34
2019-04-16T12:49:39.062Z,15.49
2019-04-16T12:52:29.163Z,15.73
2019-04-16T12:55:08.575Z,15.73
2019-04-16T12:58:05.995Z,15.37
2019-04-16T13:00:46.482Z,15.45
2019-04-16T13:03:31.883Z,15.62
2019-04-16T13:06:18.925Z,15.75
2019-04-16T13:09:14.813Z,15.67
2019-04-16T13:11:50.422Z,15.75
2019-04-16T13:14:42.961Z,15.85
2019-04-16T13:17:30.381Z,15.90
2019-04-16T13:20:29.295Z,15.93
2019-04-16T13:22:57.782Z,15.84
2019-04-16T13:25:34.625Z,15.82
2019-04-16T13:28:06.110Z,15.95
2019-04-16T13:30:37.062Z,15.92
2019-04-16T13:33:06.461Z,16.10
2019-04-16T13:35:36.350Z,16.30
2019-04-16T13:38:09.479Z,16.05
2019-04-16T13:40:41.306Z,16.19
2019-04-16T13:43:10.502Z,16.19
2019-04-16T13:45:40.397Z,16.15
2019-04-16T13:48:30.187Z,16.09
2019-04-16T13:51:02.981Z,16.10
2019-04-16T13:53:44.755Z,16.22
2019-04-16T13:56:32.219Z,16.19
2019-04-16T13:59:36.026Z,16.04
2019-04-16T14:02:19.839Z,16.13
2019-04-16T14:04:51.163Z,16.18
2019-04-16T14:07:25.305Z,16.19
2019-04-16T14:09:54.749Z,16.24
2019-04-16T14:12:40.791Z,16.28
2019-04-16T14:14:55.372Z,16.14
2019-04-16T14:17:26.347Z,16.05
2019-04-16T14:19:55.997Z,16.16
2019-04-16T14:22:26.592Z,16.38
2019-04-16T14:24:57.240Z,16.58
2019-04-16T14:27:33.320Z,16.62
2019-04-16T14:30:10.001Z,16.57
2019-04-16T14:32:39.329Z,16.45
2019-04-16T14:35:33.070Z,16.42
2019-04-16T14:37:56.365Z,16.55
2019-04-16T14:40:27.859Z,16.50
2019-04-16T14:42:58.268Z,16.56
2019-04-16T14:45:57.071Z,16.47
2019-04-16T14:48:13.614Z,16.48
2019-04-16T14:50:42.996Z,16.68
2019-04-16T14:53:14.235Z,16.53
2019-04-16T14:56:00.736Z,16.48
2019-04-16T14:58:36.679Z,16.45
2019-04-16T15:01:23.850Z,16.49
2019-04-16T15:04:27.423Z,16.58
2019-04-16T15:07:21.892Z,16.54
2019-04-16T15:10:09.295Z,16.51
2019-04-16T15:12:45.632Z,16.51
2019-04-16T15:15:24.863Z,16.39
2019-04-16T15:18:06.868Z,16.45
2019-04-16T15:20:55.673Z,16.55
2019-04-16T15:23:41.600Z,16.57
2019-04-16T15:26:22.379Z,16.57
2019-04-16T15:28:57.319Z,16.56
2019-04-16T15:31:43.793Z,16.57
2019-04-16T15:34:19.019Z,16.50
2019-04-16T15:36:56.581Z,16.51
2019-04-16T15:39:42.398Z,16.69
2019-04-16T15:42:33.153Z,16.53
2019-04-16T15:45:14.076Z,16.37
2019-04-16T15:48:09.982Z,16.35
2019-04-16T15:50:48.182Z,16.61
2019-04-16T15:53:50.556Z,16.54
2019-04-16T15:56:45.672Z,16.65
2019-04-16T15:59:20.628Z,16.73
2019-04-16T16:02:24.416Z,16.56
2019-04-16T16:04:59.971Z,16.56
2019-04-16T16:07:35.866Z,16.47
2019-04-16T16:10:21.948Z,16.54
2019-04-16T16:12:53.638Z,16.40
2019-04-16T16:15:24.382Z,16.38
2019-04-16T16:17:54.316Z,16.34
2019-04-16T16:20:23.721Z,16.29
2019-04-16T16:22:54.613Z,16.24
2019-04-16T16:25:25.752Z,16.33
2019-04-16T16:27:55.275Z,16.45
2019-04-16T16:30:24.849Z,16.42
2019-04-16T16:32:56.040Z,16.36
2019-04-16T16:35:25.649Z,16.29
2019-04-16T16:37:56.231Z,16.27
2019-04-16T16:40:27.317Z,16.24
2019-04-16T16:42:56.824Z,16.21
2019-04-16T16:45:41.103Z,16.35
2019-04-16T16:48:10.519Z,16.21
2019-04-16T16:50:41.010Z,16.15
2019-04-16T16:53:21.667Z,15.98
2019-04-16T16:55:53.225Z,15.90
2019-04-16T16:58:47.949Z,15.99
2019-04-16T17:01:48.303Z,16.00
2019-04-16T17:04:20.449Z,15.90
2019-04-16T17:06:53.710Z,15.96
2019-04-16T17:09:32.623Z,15.94
2019-04-16T17:12:03.871Z,15.90
2019-04-16T17:14:37.780Z,15.91
2019-04-16T17:17:14.232Z,15.92
2019-04-16T17:19:40.604Z,15.85
2019-04-16T17:22:14.731Z,15.86
2019-04-16T17:24:44.738Z,15.86
2019-04-16T17:27:14.215Z,15.82
2019-04-16T17:29:46.659Z,15.78
2019-04-16T17:32:19.525Z,15.68
2019-04-16T17:34:49.335Z,15.55
2019-04-16T17:37:21.373Z,15.56
2019-04-16T17:39:54.517Z,15.50
2019-04-16T17:42:37.614Z,15.50
2019-04-16T17:45:24.359Z,15.44
2019-04-16T17:48:05.676Z,15.43
2019-04-16T17:50:52.877Z,15.42
2019-04-16T17:53:48.600Z,15.39
2019-04-16T17:56:37.768Z,15.27
2019-04-16T17:59:15.481Z,15.27
2019-04-16T18:02:02.431Z,15.22
2019-04-16T18:04:46.993Z,15.23
2019-04-16T18:07:35.223Z,15.13
2019-04-16T18:10:15.663Z,15.05
2019-04-16T18:12:56.805Z,15.06
2019-04-16T18:15:45.708Z,15.05
2019-04-16T18:18:19.986Z,14.94
2019-04-16T18:21:26.716Z,14.92
2019-04-16T18:24:15.037Z,14.89
2019-04-16T18:27:12.393Z,14.88
2019-04-16T18:30:05.472Z,14.88
2019-04-16T18:32:43.193Z,14.77
2019-04-16T18:35:35.907Z,14.72
2019-04-16T18:38:23.578Z,14.68
2019-04-16T18:41:13.037Z,14.63
2019-04-16T18:44:00.638Z,14.64
2019-04-16T18:46:45.242Z,14.54
2019-04-16T18:49:18.113Z,14.46
2019-04-16T18:51:47.574Z,14.43
2019-04-16T18:54:16.954Z,14.41
2019-04-16T18:56:46.529Z,14.28
2019-04-16T18:59:15.860Z,14.23
2019-04-16T19:01:46.766Z,14.18
2019-04-16T19:04:16.350Z,14.12
2019-04-16T19:06:45.677Z,14.10
2019-04-16T19:09:15.051Z,14.06
2019-04-16T19:11:44.614Z,13.96
2019-04-16T19:14:14.069Z,13.98
2019-04-16T19:16:43.443Z,13.93
2019-04-16T19:19:14.963Z,13.84
2019-04-16T19:21:44.361Z,13.80
2019-04-16T19:24:13.776Z,13.71
2019-04-16T19:26:43.293Z,13.69
2019-04-16T19:29:14.517Z,13.67
2019-04-16T19:31:43.844Z,13.67
2019-04-16T19:34:13.399Z,13.61
2019-04-16T19:36:43.408Z,13.61
2019-04-16T19:39:15.166Z,13.56
2019-04-16T19:41:44.323Z,13.52
2019-04-16T19:44:13.726Z,13.46
2019-04-16T19:46:45.955Z,13.41
2019-04-16T19:49:14.283Z,13.36
2019-04-16T19:51:43.668Z,13.31
2019-04-16T19:54:13.100Z,13.34
2019-04-16T19:56:42.543Z,13.27
2019-04-16T19:59:11.917Z,13.29
2019-04-16T20:01:41.423Z,13.23
2019-04-16T20:04:11.053Z,13.18
2019-04-16T20:06:40.468Z,13.17
2019-04-16T20:09:09.861Z,13.12
2019-04-16T20:11:39.294Z,13.05
2019-04-16T20:14:08.668Z,13.02
2019-04-16T20:16:38.024Z,13.01
2019-04-16T20:19:07.448Z,12.94
2019-04-16T20:21:37.796Z,12.85
2019-04-16T20:24:07.584Z,12.72
2019-04-16T20:26:38.497Z,12.76
2019-04-16T20:29:08.973Z,12.82
2019-04-16T20:31:38.357Z,12.68
2019-04-16T20:34:09.361Z,12.63
2019-04-16T20:36:39.108Z,12.49
2019-04-16T20:39:09.491Z,12.43
2019-04-16T20:41:39.142Z,12.43
2019-04-16T20:44:09.488Z,12.36
2019-04-16T20:46:39.057Z,12.22
2019-04-16T20:49:11.052Z,12.16
2019-04-16T20:51:40.624Z,12.11
2019-04-16T20:54:13.755Z,12.10
2019-04-16T20:56:41.450Z,11.98
2019-04-16T20:59:12.646Z,11.88
2019-04-16T21:01:42.016Z,11.86
2019-04-16T21:04:13.196Z,11.84
2019-04-16T21:06:42.661Z,11.88
2019-04-16T21:09:12.068Z,11.72
2019-04-16T21:11:41.923Z,11.68
2019-04-16T21:14:12.010Z,11.63
2019-04-16T21:16:41.406Z,11.61
2019-04-16T21:19:22.771Z,11.50
2019-04-16T21:21:42.311Z,11.54
2019-04-16T21:24:15.239Z,11.51
2019-04-16T21:26:51.024Z,11.40
2019-04-16T21:29:25.690Z,11.33
2019-04-16T21:32:00.685Z,11.27
2019-04-16T21:35:00.161Z,11.18
2019-04-16T21:37:53.118Z,11.25
2019-04-16T21:40:29.166Z,11.16
2019-04-16T21:43:00.495Z,11.03
2019-04-16T21:45:31.564Z,11.01
2019-04-16T21:48:02.702Z,11.03
2019-04-16T21:50:34.762Z,10.97
2019-04-16T21:53:06.353Z,11.02
2019-04-16T21:55:36.575Z,10.94
2019-04-16T21:58:07.995Z,10.88
2019-04-16T22:00:55.949Z,10.82
2019-04-16T22:03:31.995Z,10.80
2019-04-16T22:06:04.227Z,10.77
2019-04-16T22:08:38.518Z,10.70
2019-04-16T22:11:11.774Z,10.67
2019-04-16T22:13:50.455Z,10.66
2019-04-16T22:16:20.721Z,10.58
2019-04-16T22:18:53.589Z,10.43
2019-04-16T22:21:24.208Z,10.39
2019-04-16T22:23:53.869Z,10.42
2019-04-16T22:26:24.279Z,10.49
2019-04-16T22:28:56.001Z,10.33
2019-04-16T22:31:27.890Z,10.30
2019-04-16T22:34:00.425Z,10.36
2019-04-16T22:36:31.941Z,10.25
2019-04-16T22:39:08.430Z,10.23
2019-04-16T22:41:47.666Z,10.27
2019-04-16T22:44:41.387Z,10.24
2019-04-16T22:47:14.683Z,10.24
2019-04-16T22:49:47.360Z,10.14
2019-04-16T22:52:19.946Z,10.12
2019-04-16T22:54:52.992Z,10.15
2019-04-16T22:57:30.951Z,10.09
2019-04-16T23:00:01.685Z,9.98
2019-04-16T23:02:32.287Z,9.97
2019-04-16T23:05:01.974Z,9.97
2019-04-16T23:07:31.750Z,9.94
2019-04-16T23:10:02.169Z,9.91
2019-04-16T23:12:35.721Z,9.96
2019-04-16T23:15:06.763Z,9.99
2019-04-16T23:17:36.212Z,9.88
2019-04-16T23:20:09.524Z,9.90
2019-04-16T23:22:43.651Z,9.79
2019-04-16T23:25:14.036Z,9.82
2019-04-16T23:27:45.239Z,9.86
2019-04-16T23:30:18.625Z,9.79
2019-04-16T23:32:50.123Z,9.71
2019-04-16T23:35:19.677Z,9.77
2019-04-16T23:37:58.108Z,9.76
2019-04-16T23:40:27.618Z,9.77
2019-04-16T23:43:18.754Z,9.67
2019-04-16T23:46:05.018Z,9.68
2019-04-16T23:48:53.662Z,9.62
2019-04-16T23:51:29.142Z,9.63
2019-04-16T23:54:12.782Z,9.59
2019-04-16T23:56:53.884Z,9.50
2019-04-16T23:59:32.639Z,9.53
